SBSPSBMG

Guest
Details From SBSP - Sao Paulo Congonhas
To SBMG - REGIONAL DE MARINGA SILVIO NAME JUNIOR
Flight Number -
Tags generated
Created
Modified
Stats Distance 296 nm / 549 km
Max Altitude 18,200 ft / 5,547 m
Waypoints 4
Social Downloads 3
Likes 0
Share VATSIM

Download

Looking for another format? Having issues loading an existing format? Contact us
Advertisement - Login to hide

Notes

Basic altitude profile: - Ascent Rate: 2500ft/min - Ascent Speed: 250kts - Cruise Altitude: 35000ft - Cruise Speed: 420kts - Descent Rate: 1500ft/min - Descent Speed: 250kts Options: - Use NATs: yes - Use PACOTS: yes - Use low airways: yes - Use high airways: yes

Route

SBSP SCB A428 KARIU SBMG

ID Type Via Altitude (ft/m) Position (lat/lon) Dist (leg/tot) Name
O SBSP APT - 0 / 0 -23.62669 / -46.65538 - / 0 nm Sao Paulo Congonhas
SCB VOR - 14,400 / 4,389 -23.50700 / -47.37817 40 / 40 nm SOROCABA VOR-DME
KARIU FIX A428 (AWY-LO) 18,200 / 5,547 -23.37900 / -50.38933 166 / 206 nm
O SBMG APT - 0 / 0 -23.47611 / -52.01640 89 / 296 nm REGIONAL DE MARINGA SILVIO NAME JUNIOR

Altitude Profile

Advertisement - Login to hide

Weather


0- 5 10 15 20 25 30 35+ Temperature / °C

Clouds and Precipitation
Forecast for 2019-08-21 12:00 UTC. Updated 2 hours ago

Ground ~20,000 ft ~40,000 ft Winds

SBSP

Details ICAO SBSP (CGH)
Name Sao Paulo Congonhas
Region Brazil
Timezone America/Sao_Paulo (UTC-3.0)
Stats Elevation 2,631 ft / 802 m (AMSL)
Location -23.626700° -46.655200°
Runways 2
Magnetic Variation 21.505° W

METAR

SBSP 211100Z 15007KT 9999 FEW005 OVC009 14/13 Q1025

Decode

TAF

TAF SBSP 210100Z 2106/2118 15008KT 8000 BKN004 OVC010TN14/2109Z TX19/2117Z PROB30 2109/2111 3000 BR BKN004 BECMG 2112/2115 BKN020 RMK PHG

Decode

Departure Runways

ID Width Length Bearing (true/mag) Surface Threshold Overrun Markings Lighting
17L 148 ft / 45 m 4,920 ft / 1,500 m 147.63° / 169.14° ASPHALT 197 ft / 60 m 0 ft / 0 m APP EDGE THRESHOLD
17R 148 ft / 45 m 6,360 ft / 1,938 m 147.63° / 169.14° ASPHALT 407 ft / 124 m 0 ft / 0 m PREC-APP EDGE THRESHOLD ALSF-I TDZ
35L 148 ft / 45 m 6,360 ft / 1,938 m 327.63° / 349.13° ASPHALT 180 ft / 55 m 0 ft / 0 m PREC-APP EDGE THRESHOLD
35R 148 ft / 45 m 4,920 ft / 1,500 m 327.63° / 349.13° ASPHALT 0 ft / 0 m 0 ft / 0 m APP EDGE THRESHOLD

SBMG

Details ICAO SBMG (MGF)
Name Maringa Regl
Region Brazil
Timezone America/Sao_Paulo (UTC-3.0)
Stats Elevation 1,801 ft / 549 m (AMSL)
Location -23.476100° -52.016500°
Runways 1
Magnetic Variation 18.779° W

METAR

SBMG 211100Z 16003KT 6000 NSC 13/12 Q1022

Decode

TAF

Not found

Destination Runways

ID Width Length Bearing (true/mag) Surface Threshold Overrun Markings Lighting
10 148 ft / 45 m 6,896 ft / 2,102 m 77.78° / 96.56° ASPHALT 0 ft / 0 m 197 ft / 60 m PREC-APP EDGE THRESHOLD
28 148 ft / 45 m 6,896 ft / 2,102 m 257.78° / 276.56° ASPHALT 0 ft / 0 m 197 ft / 60 m PREC-APP EDGE THRESHOLD

Popular Alternatives